Time;durP1;ratioP1;P1;durP2;ratioP2;P2;SDS_P1;SDS_P2;PMS_P1;PMS_P2;Temp;Humidity;BMP_temperature;BMP_pressure;BME280_temperature;BME280_humidity;BME280_pressure;Samples;Min_cycle;Max_cycle;Signal;HPM_P1;HPM_P2
2021/08/08 00:00:34;;;;;;;3.77;0.90;;;;;;;12.86;100.00;93327.06;5075456;28;20204;-81
2021/08/08 00:03:00;;;;;;;2.63;0.87;;;;;;;12.82;100.00;93323.28;5075317;28;20206;-80
2021/08/08 00:05:27;;;;;;;2.73;1.13;;;;;;;12.83;100.00;93330.13;5075235;28;20227;-81
2021/08/08 00:07:54;;;;;;;1.90;0.80;;;;;;;12.77;100.00;93331.84;5075481;28;20218;-81
2021/08/08 00:10:21;;;;;;;2.10;0.97;;;;;;;12.55;100.00;93328.13;5075247;28;20653;-82
2021/08/08 00:12:47;;;;;;;2.70;1.00;;;;;;;12.30;100.00;93325.66;5075232;28;20695;-82
2021/08/08 00:15:14;;;;;;;2.87;0.90;;;;;;;12.33;100.00;93325.22;5075608;28;20206;-82
2021/08/08 00:17:42;;;;;;;1.70;0.90;;;;;;;12.25;100.00;93320.28;5074982;28;20574;-81
2021/08/08 00:20:10;;;;;;;3.17;1.23;;;;;;;12.10;100.00;93321.47;5074860;28;20603;-79
2021/08/08 00:22:37;;;;;;;2.33;1.00;;;;;;;12.08;100.00;93323.53;5074751;28;20649;-82
2021/08/08 00:25:05;;;;;;;3.00;1.00;;;;;;;11.80;100.00;93326.63;5075086;28;20565;-81
2021/08/08 00:27:33;;;;;;;3.27;0.97;;;;;;;12.09;100.00;93324.31;5074979;28;20206;-81
2021/08/08 00:30:00;;;;;;;2.17;0.90;;;;;;;12.28;100.00;93322.47;5075015;28;20222;-81
2021/08/08 00:32:26;;;;;;;6.23;1.30;;;;;;;12.06;100.00;93329.97;5074801;28;20198;-81
2021/08/08 00:34:54;;;;;;;10.07;1.03;;;;;;;11.81;100.00;93329.03;5075073;28;20202;-81
2021/08/08 00:37:21;;;;;;;3.13;1.13;;;;;;;11.74;100.00;93338.78;5075047;28;20210;-81
2021/08/08 00:39:47;;;;;;;5.57;1.20;;;;;;;11.77;100.00;93340.16;5074854;28;20199;-81
2021/08/08 00:42:13;;;;;;;2.83;1.07;;;;;;;11.70;100.00;93342.03;5074675;28;20203;-81
2021/08/08 00:44:40;;;;;;;7.13;1.40;;;;;;;11.57;100.00;93332.53;5074377;28;20241;-81
2021/08/08 00:47:06;;;;;;;5.83;1.00;;;;;;;11.53;100.00;93336.59;5074377;28;20562;-81
2021/08/08 00:49:33;;;;;;;2.53;1.20;;;;;;;11.39;100.00;93331.50;5074604;28;20206;-82
2021/08/08 00:52:01;;;;;;;5.83;1.20;;;;;;;11.21;100.00;93334.09;5074677;28;20202;-82
2021/08/08 00:54:28;;;;;;;6.03;1.40;;;;;;;11.05;100.00;93331.00;5074658;28;20199;-82
2021/08/08 00:56:54;;;;;;;1.90;1.10;;;;;;;11.10;100.00;93338.97;5074354;28;20538;-81
2021/08/08 00:59:20;;;;;;;1.90;1.10;;;;;;;11.36;100.00;93352.84;5074142;28;20256;-80
2021/08/08 01:01:50;;;;;;;5.40;1.00;;;;;;;11.79;100.00;93346.78;5074408;28;20206;-83
2021/08/08 01:04:20;;;;;;;5.53;1.10;;;;;;;11.94;100.00;93348.22;5074375;28;20206;-82
2021/08/08 01:06:52;;;;;;;3.20;1.27;;;;;;;11.84;100.00;93351.34;5074215;28;20234;-82
2021/08/08 01:09:24;;;;;;;4.43;1.23;;;;;;;11.79;100.00;93357.22;5074369;28;20210;-82
2021/08/08 01:11:51;;;;;;;3.63;0.90;;;;;;;11.90;100.00;93360.13;5074217;28;20209;-81
2021/08/08 01:14:19;;;;;;;3.47;1.13;;;;;;;11.94;100.00;93350.84;5074145;28;20203;-82
2021/08/08 01:16:47;;;;;;;3.00;1.00;;;;;;;11.78;100.00;93358.25;5074191;28;20665;-81
2021/08/08 01:19:18;;;;;;;3.17;0.90;;;;;;;11.64;100.00;93357.59;5074104;28;20206;-81
2021/08/08 01:21:47;;;;;;;2.20;0.97;;;;;;;11.70;100.00;93358.53;5074056;28;20194;-83
2021/08/08 01:24:15;;;;;;;5.07;1.17;;;;;;;11.56;100.00;93363.09;5074036;28;20210;-82
2021/08/08 01:26:44;;;;;;;2.27;1.10;;;;;;;11.36;100.00;93367.69;5073595;28;20223;-82
2021/08/08 01:29:10;;;;;;;3.07;1.27;;;;;;;11.21;100.00;93376.69;5072973;28;20450;-82
2021/08/08 01:31:37;;;;;;;4.27;1.10;;;;;;;11.16;100.00;93371.31;5073868;28;20456;-82
2021/08/08 01:34:03;;;;;;;7.27;1.10;;;;;;;11.13;100.00;93376.16;5073278;28;20206;-82
2021/08/08 01:36:30;;;;;;;4.97;1.40;;;;;;;11.01;100.00;93373.44;5073754;28;20198;-82
2021/08/08 01:39:01;;;;;;;4.80;1.13;;;;;;;10.91;100.00;93376.53;5073441;28;20209;-82
2021/08/08 01:41:35;;;;;;;1.80;1.20;;;;;;;10.80;100.00;93377.22;5073659;28;20206;-81
2021/08/08 01:44:04;;;;;;;2.23;1.10;;;;;;;10.84;100.00;93376.59;5073612;28;20280;-82
2021/08/08 01:46:33;;;;;;;4.13;1.60;;;;;;;10.64;100.00;93376.72;5073371;28;20230;-82
2021/08/08 01:49:04;;;;;;;5.00;1.20;;;;;;;10.67;100.00;93376.25;5073820;28;20205;-82
2021/08/08 01:51:31;;;;;;;6.13;1.30;;;;;;;10.47;100.00;93380.81;5073275;28;20265;-82
2021/08/08 01:53:58;;;;;;;2.97;1.40;;;;;;;10.58;100.00;93372.31;5073549;28;20561;-81
2021/08/08 01:56:24;;;;;;;10.33;1.60;;;;;;;10.67;100.00;93376.25;5073509;28;20202;-82
2021/08/08 01:58:52;;;;;;;6.53;1.47;;;;;;;10.62;100.00;93370.88;5073446;28;20636;-81
2021/08/08 02:01:19;;;;;;;2.80;1.20;;;;;;;10.51;100.00;93364.53;5073795;28;20205;-81
2021/08/08 02:03:45;;;;;;;2.47;1.30;;;;;;;10.41;100.00;93371.19;5073539;28;20239;-82
2021/08/08 02:06:12;;;;;;;5.20;1.50;;;;;;;10.35;100.00;93368.44;5073111;28;20233;-81
2021/08/08 02:08:38;;;;;;;4.03;1.40;;;;;;;10.34;100.00;93382.50;5073238;28;20301;-83
2021/08/08 02:11:05;;;;;;;4.87;1.60;;;;;;;10.31;100.00;93387.31;5073305;28;20210;-83
2021/08/08 02:13:31;;;;;;;4.67;1.30;;;;;;;10.18;100.00;93401.19;5073068;28;20430;-82
2021/08/08 02:15:59;;;;;;;6.87;1.40;;;;;;;10.20;100.00;93393.97;5073063;28;20203;-82
2021/08/08 02:18:26;;;;;;;3.07;1.30;;;;;;;10.25;100.00;93388.13;5072971;28;20205;-82
2021/08/08 02:20:52;;;;;;;5.67;1.30;;;;;;;10.23;100.00;93385.72;5072671;28;20199;-82
2021/08/08 02:23:19;;;;;;;4.63;1.60;;;;;;;10.03;100.00;93395.44;5073092;28;20222;-82
2021/08/08 02:25:50;;;;;;;2.87;1.47;;;;;;;9.99;100.00;93395.84;5072881;28;20199;-82
2021/08/08 02:28:17;;;;;;;3.63;1.60;;;;;;;10.06;100.00;93395.00;5072977;28;20199;-82
2021/08/08 02:30:43;;;;;;;8.10;2.00;;;;;;;10.18;100.00;93401.19;5072875;28;20279;-82
2021/08/08 02:33:11;;;;;;;4.13;1.60;;;;;;;10.12;100.00;93402.03;5072655;28;20206;-81
2021/08/08 02:35:37;;;;;;;4.00;1.60;;;;;;;10.09;100.00;93408.47;5072988;28;20198;-81
2021/08/08 02:38:04;;;;;;;4.40;1.50;;;;;;;9.96;100.00;93408.50;5072865;28;20206;-81
2021/08/08 02:40:30;;;;;;;3.37;1.60;;;;;;;10.14;100.00;93419.06;5073035;28;20202;-81
2021/08/08 02:42:57;;;;;;;6.20;1.90;;;;;;;10.16;100.00;93421.47;5072756;28;20199;-81
2021/08/08 02:45:23;;;;;;;8.90;1.83;;;;;;;10.10;100.00;93420.47;5073401;28;20234;-81
2021/08/08 02:47:50;;;;;;;3.67;2.10;;;;;;;10.10;100.00;93415.25;5076678;28;20222;-81
2021/08/08 02:50:17;;;;;;;10.53;1.70;;;;;;;10.14;100.00;93418.25;5076952;28;20260;-81
2021/08/08 02:52:44;;;;;;;3.50;1.90;;;;;;;10.19;100.00;93413.22;5076763;28;20210;-81
2021/08/08 02:55:11;;;;;;;10.07;2.10;;;;;;;10.18;100.00;93401.19;5076745;28;20198;-81
2021/08/08 02:57:38;;;;;;;9.93;2.00;;;;;;;10.19;100.00;93405.38;5076621;28;20206;-81
2021/08/08 03:00:05;;;;;;;7.75;2.20;;;;;;;10.21;100.00;93405.19;5075832;28;20430;-80
2021/08/08 03:02:34;;;;;;;4.97;1.50;;;;;;;10.12;100.00;93421.06;5076457;28;20203;-82
2021/08/08 03:05:00;;;;;;;6.63;1.90;;;;;;;10.11;100.00;93424.69;5076415;28;20561;-82
2021/08/08 03:07:28;;;;;;;3.67;2.10;;;;;;;10.08;100.00;93422.50;5076449;28;20222;-82
2021/08/08 03:09:54;;;;;;;2.17;1.43;;;;;;;10.08;100.00;93430.31;5076495;28;20203;-82
2021/08/08 03:12:21;;;;;;;3.77;1.80;;;;;;;10.15;100.00;93435.53;5076285;28;20307;-82
2021/08/08 03:14:47;;;;;;;4.80;1.50;;;;;;;10.14;100.00;93428.69;5076204;28;20206;-81
2021/08/08 03:17:14;;;;;;;3.47;1.80;;;;;;;10.22;100.00;93425.06;5076200;28;20203;-81
2021/08/08 03:19:40;;;;;;;6.33;1.90;;;;;;;10.25;100.00;93420.22;5076335;28;20203;-81
2021/08/08 03:22:06;;;;;;;4.27;1.57;;;;;;;10.18;100.00;93424.69;5076252;28;20195;-82
2021/08/08 03:24:35;;;;;;;3.40;1.50;;;;;;;9.93;100.00;93419.34;5076203;28;20249;-81
2021/08/08 03:27:01;;;;;;;2.57;1.50;;;;;;;9.82;100.00;93431.19;5075946;28;20231;-82
2021/08/08 03:29:28;;;;;;;0.30;0.30;;;;;;;9.76;100.00;93442.47;5075926;28;20206;-81
2021/08/08 03:31:54;;;;;;;0.40;0.40;;;;;;;9.67;100.00;93431.41;5076115;28;20202;-82
2021/08/08 03:34:21;;;;;;;8.03;1.57;;;;;;;9.55;100.00;93435.66;5076233;28;20560;-82
2021/08/08 03:36:47;;;;;;;4.13;1.70;;;;;;;9.61;100.00;93446.06;5075968;28;20202;-81
2021/08/08 03:39:13;;;;;;;6.03;2.23;;;;;;;9.54;100.00;93452.28;5075779;28;20653;-82
2021/08/08 03:41:41;;;;;;;3.67;1.90;;;;;;;9.49;100.00;93463.31;5075760;28;20210;-81
2021/08/08 03:44:08;;;;;;;8.83;1.63;;;;;;;9.41;100.00;93466.94;5075523;28;20234;-83
2021/08/08 03:46:34;;;;;;;5.18;1.90;;;;;;;9.26;100.00;93474.94;5074846;28;20524;-83
2021/08/08 03:49:00;;;;;;;4.27;1.47;;;;;;;9.21;100.00;93477.34;5075832;28;20272;-82
2021/08/08 03:51:27;;;;;;;4.90;1.50;;;;;;;9.30;100.00;93483.16;5075647;28;20676;-82
2021/08/08 03:53:53;;;;;;;3.37;1.63;;;;;;;9.38;100.00;93487.38;5075647;28;20214;-82
2021/08/08 03:56:20;;;;;;;2.63;1.70;;;;;;;9.31;100.00;93481.34;5075102;28;20218;-82
2021/08/08 03:58:47;;;;;;;3.87;1.43;;;;;;;9.29;100.00;93493.78;5075504;28;20603;-81
2021/08/08 04:01:14;;;;;;;3.70;2.00;;;;;;;9.38;100.00;93487.38;5075585;28;20569;-82
2021/08/08 04:03:40;;;;;;;3.03;1.87;;;;;;;9.38;100.00;93487.38;5075751;28;20195;-82
2021/08/08 04:06:07;;;;;;;4.97;1.90;;;;;;;9.31;100.00;93489.16;5075204;28;20653;-82
2021/08/08 04:08:33;;;;;;;3.27;1.80;;;;;;;9.33;100.00;93489.78;5075399;28;20206;-82
2021/08/08 04:11:00;;;;;;;5.53;1.90;;;;;;;9.37;100.00;93485.78;5075253;28;20199;-82
2021/08/08 04:13:26;;;;;;;4.47;2.17;;;;;;;9.35;100.00;93491.19;5075434;28;20203;-83
2021/08/08 04:15:54;;;;;;;10.97;2.30;;;;;;;9.31;100.00;93486.56;5075502;28;20557;-82
2021/08/08 04:18:21;;;;;;;5.13;2.00;;;;;;;9.29;100.00;93496.38;5075124;28;20669;-82
2021/08/08 04:20:47;;;;;;;5.50;2.20;;;;;;;9.36;100.00;93492.78;5075138;28;20657;-82
2021/08/08 04:23:14;;;;;;;8.43;2.43;;;;;;;9.42;100.00;93489.38;5075254;28;20195;-82
2021/08/08 04:25:40;;;;;;;6.73;2.30;;;;;;;9.42;100.00;93488.56;5074573;28;20226;-82
2021/08/08 04:28:07;;;;;;;3.90;2.30;;;;;;;9.44;100.00;93484.78;5074694;28;20688;-82
2021/08/08 04:30:34;;;;;;;8.40;2.40;;;;;;;9.43;100.00;93480.56;5074975;28;20202;-81
2021/08/08 04:33:02;;;;;;;12.17;2.80;;;;;;;9.45;100.00;93478.53;5075022;28;20260;-82
2021/08/08 04:35:29;;;;;;;5.87;2.10;;;;;;;9.42;100.00;93480.75;5074884;28;20195;-82
2021/08/08 04:37:56;;;;;;;5.97;2.47;;;;;;;9.42;100.00;93484.16;5074797;28;20653;-82
2021/08/08 04:40:22;;;;;;;4.67;2.00;;;;;;;9.37;100.00;93496.97;5074677;28;20205;-82
2021/08/08 04:42:48;;;;;;;8.03;2.63;;;;;;;9.51;100.00;93494.38;5074856;28;20202;-82
2021/08/08 04:45:15;;;;;;;6.77;2.30;;;;;;;9.48;100.00;93494.81;5074535;28;20234;-82
2021/08/08 04:47:41;;;;;;;10.77;2.30;;;;;;;9.51;100.00;93492.59;5074491;28;20230;-82
2021/08/08 04:50:10;;;;;;;9.53;2.60;;;;;;;9.52;100.00;93488.19;5074617;28;20195;-82
2021/08/08 04:52:37;;;;;;;4.50;2.60;;;;;;;9.62;100.00;93499.78;5074488;28;20199;-80
2021/08/08 04:55:05;;;;;;;8.43;2.27;;;;;;;9.73;100.00;93492.38;5074633;28;20234;-82
2021/08/08 04:57:31;;;;;;;7.43;2.83;;;;;;;9.80;100.00;93495.78;5074648;28;20206;-82
2021/08/08 04:59:58;;;;;;;6.73;2.53;;;;;;;9.91;100.00;93502.16;5074413;28;20226;-82
2021/08/08 05:02:24;;;;;;;9.20;2.47;;;;;;;9.87;100.00;93496.56;5074288;28;20211;-81
2021/08/08 05:04:51;;;;;;;5.50;2.17;;;;;;;9.87;100.00;93507.00;5074483;28;20681;-82
2021/08/08 05:07:19;;;;;;;4.43;2.03;;;;;;;9.80;100.00;93511.41;5074070;28;20230;-82
2021/08/08 05:09:45;;;;;;;9.30;1.90;;;;;;;9.73;100.00;93521.06;5073662;28;20199;-81
2021/08/08 05:12:12;;;;;;;5.93;1.93;;;;;;;9.84;100.00;93520.44;5074252;28;20226;-82
2021/08/08 05:14:39;;;;;;;6.87;2.10;;;;;;;9.89;100.00;93527.66;5074137;28;20222;-82
2021/08/08 05:17:08;;;;;;;8.70;1.80;;;;;;;9.96;100.00;93523.25;5073981;28;20207;-82
2021/08/08 05:19:35;;;;;;;6.18;2.30;;;;;;;10.02;100.00;93521.63;5073707;28;20877;-82
2021/08/08 05:22:01;;;;;;;6.47;2.33;;;;;;;10.07;100.00;93517.41;5073700;28;20210;-81
2021/08/08 05:24:29;;;;;;;5.40;1.90;;;;;;;10.14;100.00;93512.16;5074170;28;20195;-81
2021/08/08 05:26:56;;;;;;;6.10;2.17;;;;;;;10.15;100.00;93521.59;5073846;28;20234;-82
2021/08/08 05:29:23;;;;;;;14.83;2.20;;;;;;;10.23;100.00;93515.38;5074158;28;20234;-81
2021/08/08 05:31:50;;;;;;;3.47;1.73;;;;;;;10.26;100.00;93514.94;5073668;28;20198;-81
2021/08/08 05:34:16;;;;;;;7.27;1.87;;;;;;;10.30;100.00;93516.94;5073628;28;20588;-83
2021/08/08 05:36:43;;;;;;;5.43;1.90;;;;;;;10.35;100.00;93514.56;5074669;28;20257;-83
2021/08/08 05:39:09;;;;;;;5.77;1.70;;;;;;;10.42;100.00;93513.75;5073810;28;20207;-82
2021/08/08 05:41:37;;;;;;;11.47;2.37;;;;;;;10.51;100.00;93515.13;5073925;28;20599;-82
2021/08/08 05:44:04;;;;;;;4.97;2.00;;;;;;;10.59;100.00;93527.13;5073527;28;20643;-82
2021/08/08 05:46:30;;;;;;;3.53;2.10;;;;;;;10.69;100.00;93530.91;5073506;28;20199;-83
2021/08/08 05:48:57;;;;;;;8.67;2.10;;;;;;;10.83;100.00;93539.50;5073306;28;20279;-83
2021/08/08 05:51:23;;;;;;;5.70;1.87;;;;;;;11.02;100.00;93534.38;5073551;28;20207;-82
2021/08/08 05:53:50;;;;;;;5.40;1.40;;;;;;;11.08;100.00;93536.94;5074582;28;20206;-84
2021/08/08 05:56:16;;;;;;;5.23;1.40;;;;;;;11.19;100.00;93539.91;5071129;28;20210;-82
2021/08/08 05:58:44;;;;;;;2.60;1.10;;;;;;;11.37;100.00;93534.75;5073056;28;20203;-82
2021/08/08 06:01:10;;;;;;;3.77;1.37;;;;;;;11.43;100.00;93536.53;5073567;28;20631;-83
2021/08/08 06:03:37;;;;;;;3.67;1.30;;;;;;;11.54;100.00;93534.25;5073356;28;20209;-82
2021/08/08 06:06:03;;;;;;;5.00;1.20;;;;;;;11.57;100.00;93537.25;5073572;28;20203;-82
2021/08/08 06:08:30;;;;;;;2.13;1.10;;;;;;;11.66;100.00;93535.19;5073437;28;20279;-82
2021/08/08 06:10:56;;;;;;;3.30;1.33;;;;;;;11.73;100.00;93532.53;5073410;28;20258;-83
2021/08/08 06:13:23;;;;;;;3.20;1.33;;;;;;;11.77;100.00;93531.88;5073265;28;20653;-83
2021/08/08 06:15:51;;;;;;;3.00;1.47;;;;;;;11.90;100.00;93535.41;5073275;28;20199;-79
2021/08/08 06:18:17;;;;;;;6.80;1.70;;;;;;;12.02;100.00;93549.41;5072932;28;20210;-82
2021/08/08 06:20:44;;;;;;;4.50;1.47;;;;;;;12.14;100.00;93532.00;5072791;28;20209;-81
2021/08/08 06:23:10;;;;;;;3.47;1.20;;;;;;;12.45;100.00;93538.13;5073009;28;20211;-82
2021/08/08 06:25:37;;;;;;;3.40;1.20;;;;;;;12.85;100.00;93537.66;5072969;28;20199;-83
2021/08/08 06:28:04;;;;;;;2.67;1.10;;;;;;;13.50;100.00;93544.13;5073000;28;20237;-82
2021/08/08 06:30:31;;;;;;;2.05;0.80;;;;;;;13.45;100.00;93536.91;5072846;28;20248;-82
2021/08/08 06:32:59;;;;;;;3.55;0.90;;;;;;;13.67;100.00;93539.84;5072979;28;20600;-84
2021/08/08 06:35:25;;;;;;;1.65;0.70;;;;;;;14.19;100.00;93546.28;5073008;28;20538;-83
2021/08/08 06:37:52;;;;;;;1.25;0.80;;;;;;;14.30;100.00;93540.22;5073104;28;20194;-83
2021/08/08 06:40:18;;;;;;;1.95;0.80;;;;;;;14.43;100.00;93547.84;5072825;28;20654;-82
2021/08/08 06:42:45;;;;;;;1.83;0.80;;;;;;;14.36;100.00;93544.56;5072775;28;20213;-83
2021/08/08 06:45:12;;;;;;;2.03;0.52;;;;;;;14.42;100.00;93541.03;5072589;28;20230;-84
2021/08/08 06:47:38;;;;;;;5.28;1.00;;;;;;;14.28;100.00;93546.75;5072823;28;20226;-82
2021/08/08 06:50:06;;;;;;;3.10;0.95;;;;;;;14.37;100.00;93546.16;5072820;28;20203;-83
2021/08/08 06:52:33;;;;;;;6.07;0.82;;;;;;;14.57;100.00;93548.44;5072871;28;20199;-82
2021/08/08 06:54:59;;;;;;;6.30;0.95;;;;;;;14.74;100.00;93543.28;5072718;28;20199;-83
2021/08/08 06:57:26;;;;;;;2.63;0.70;;;;;;;14.68;100.00;93549.47;5072756;28;20214;-83
2021/08/08 06:59:53;;;;;;;3.65;0.90;;;;;;;14.75;100.00;93547.50;5072632;28;20198;-82
2021/08/08 07:02:20;;;;;;;4.20;0.70;;;;;;;14.82;100.00;93543.94;5072519;28;20645;-81
2021/08/08 07:04:47;;;;;;;3.70;0.70;;;;;;;14.88;100.00;93543.03;5072654;28;20203;-81
2021/08/08 07:07:15;;;;;;;2.60;0.88;;;;;;;14.97;100.00;93546.88;5072637;28;20206;-82
2021/08/08 07:09:42;;;;;;;2.53;0.90;;;;;;;15.10;100.00;93541.34;5072659;28;20248;-82
2021/08/08 07:12:08;;;;;;;2.70;0.70;;;;;;;15.08;100.00;93556.56;5072463;28;20203;-82
2021/08/08 07:14:35;;;;;;;3.60;0.70;;;;;;;15.11;100.00;93552.69;5072371;28;20234;-81
2021/08/08 07:17:02;;;;;;;3.45;0.98;;;;;;;15.00;100.00;93546.41;5072759;28;20203;-81
2021/08/08 07:19:28;;;;;;;2.80;0.68;;;;;;;15.02;100.00;93560.16;5072526;28;20256;-78
2021/08/08 07:21:55;;;;;;;5.18;0.80;;;;;;;14.89;100.00;93560.38;5072321;28;20542;-80
2021/08/08 07:24:22;;;;;;;5.38;0.75;;;;;;;14.93;100.00;93551.00;5072437;28;20206;-80
2021/08/08 07:26:49;;;;;;;2.03;0.73;;;;;;;15.00;99.13;93556.94;5071941;28;20198;-81
2021/08/08 07:29:15;;;;;;;4.15;1.00;;;;;;;15.12;100.00;93565.59;5071178;28;20723;-81
2021/08/08 07:31:42;;;;;;;4.82;1.10;;;;;;;15.31;100.00;93560.94;5073181;28;20210;-81
2021/08/08 07:34:08;;;;;;;3.92;0.93;;;;;;;15.54;100.00;93561.91;5074246;28;20198;-82
2021/08/08 07:36:35;;;;;;;7.78;0.88;;;;;;;15.47;95.88;93561.22;5075448;28;20214;-82
2021/08/08 07:39:01;;;;;;;4.57;0.80;;;;;;;15.45;98.20;93569.34;5075692;28;20596;-81
2021/08/08 07:41:29;;;;;;;3.13;0.80;;;;;;;15.27;94.79;93567.72;5075744;28;20207;-80
2021/08/08 07:43:58;;;;;;;1.38;0.60;;;;;;;15.35;99.57;93574.44;5075989;28;20276;-80
2021/08/08 07:46:25;;;;;;;2.95;0.80;;;;;;;15.38;100.00;93579.22;5075976;28;20207;-81
2021/08/08 07:48:51;;;;;;;2.15;1.13;;;;;;;15.39;100.00;93585.28;5075712;28;20241;-81
2021/08/08 07:51:18;;;;;;;5.53;1.00;;;;;;;15.45;97.83;93585.13;5075653;28;20203;-81
2021/08/08 07:53:45;;;;;;;2.30;0.68;;;;;;;15.97;100.00;93589.50;5075854;28;20203;-81
2021/08/08 07:56:11;;;;;;;3.70;0.82;;;;;;;16.08;92.70;93593.88;5075689;28;20277;-81
2021/08/08 07:58:39;;;;;;;3.00;0.80;;;;;;;15.83;100.00;93591.63;5075780;28;20429;-80
2021/08/08 08:01:05;;;;;;;4.00;0.85;;;;;;;15.61;92.40;93588.06;5075666;28;20226;-81
2021/08/08 08:03:32;;;;;;;3.90;0.93;;;;;;;15.58;98.20;93583.28;5075480;28;20298;-80
2021/08/08 08:05:58;;;;;;;2.35;0.80;;;;;;;15.90;100.00;93586.22;5075321;28;20203;-80
2021/08/08 08:08:25;;;;;;;3.17;0.88;;;;;;;15.95;97.39;93588.94;5075421;28;20321;-80
2021/08/08 08:10:51;;;;;;;3.15;0.75;;;;;;;15.90;94.79;93581.75;5075248;28;20561;-81
2021/08/08 08:13:18;;;;;;;3.20;0.90;;;;;;;16.00;96.22;93588.22;5075373;28;20226;-81
2021/08/08 08:15:45;;;;;;;2.47;0.70;;;;;;;16.20;99.54;93603.56;5075380;28;20213;-82
2021/08/08 08:18:13;;;;;;;3.15;0.80;;;;;;;16.25;92.43;93593.91;5075078;28;20654;-80
2021/08/08 08:20:40;;;;;;;4.43;0.90;;;;;;;16.28;95.37;93603.16;5074973;28;20485;-78
2021/08/08 08:23:06;;;;;;;2.83;0.73;;;;;;;15.97;92.32;93615.03;5075163;28;20225;-78
2021/08/08 08:25:33;;;;;;;4.70;0.93;;;;;;;15.91;93.17;93606.25;5075268;28;20202;-81
2021/08/08 08:28:00;;;;;;;3.20;1.00;;;;;;;16.06;95.21;93609.13;5075340;28;20222;-81
2021/08/08 08:30:27;;;;;;;5.35;1.00;;;;;;;16.36;100.00;93596.69;5075378;28;20195;-81
2021/08/08 08:32:54;;;;;;;6.88;0.98;;;;;;;16.71;91.74;93606.94;5075099;28;20206;-80
2021/08/08 08:35:21;;;;;;;4.25;0.85;;;;;;;17.04;91.42;93599.22;5074991;28;20199;-81
2021/08/08 08:37:47;;;;;;;1.55;0.70;;;;;;;17.68;88.08;93603.91;5074845;28;20206;-81
2021/08/08 08:40:14;;;;;;;3.50;0.80;;;;;;;18.02;81.36;93619.59;5074945;28;20249;-81
2021/08/08 08:42:46;;;;;;;5.47;0.80;;;;;;;18.08;81.15;93622.03;5074361;28;20195;-81
2021/08/08 08:45:13;;;;;;;3.13;0.70;;;;;;;18.04;86.69;93613.03;5074821;28;20288;-82
2021/08/08 08:47:41;;;;;;;1.15;0.80;;;;;;;18.39;82.36;93613.56;5074958;28;20199;-81
2021/08/08 08:50:12;;;;;;;3.08;0.70;;;;;;;18.09;85.29;93610.41;5074758;28;20209;-80
2021/08/08 08:52:39;;;;;;;3.63;0.70;;;;;;;17.69;86.13;93618.72;5075317;28;20301;-81
2021/08/08 08:55:07;;;;;;;4.70;0.70;;;;;;;17.65;84.25;93623.72;5075026;28;20207;-81
2021/08/08 08:57:35;;;;;;;5.25;0.90;;;;;;;17.81;85.96;93629.16;5074870;28;20199;-81
2021/08/08 09:00:05;;;;;;;2.05;0.60;;;;;;;17.73;80.13;93631.16;5074617;28;20245;-82
2021/08/08 09:02:31;;;;;;;5.68;1.02;;;;;;;16.95;78.29;93627.88;5074286;28;20211;-80
2021/08/08 09:04:57;;;;;;;3.33;0.70;;;;;;;16.91;78.90;93632.03;5074259;28;20198;-81
2021/08/08 09:07:25;;;;;;;3.13;0.70;;;;;;;17.24;82.03;93640.91;5074468;28;20209;-81
2021/08/08 09:09:52;;;;;;;2.65;0.77;;;;;;;17.72;79.61;93631.44;5074301;28;20226;-81
2021/08/08 09:12:22;;;;;;;3.15;0.85;;;;;;;18.11;78.67;93639.22;5074190;28;20202;-80
2021/08/08 09:14:57;;;;;;;4.25;0.80;;;;;;;18.15;76.66;93634.25;5075222;28;20195;-81
2021/08/08 09:17:23;;;;;;;4.28;0.90;;;;;;;18.20;76.12;93627.19;5074216;28;20194;-81
2021/08/08 09:19:59;;;;;;;3.70;0.80;;;;;;;18.25;76.98;93629.03;5073434;28;20210;-79
2021/08/08 09:22:28;;;;;;;4.28;0.65;;;;;;;18.38;75.93;93636.53;5074693;28;20209;-82
2021/08/08 09:24:55;;;;;;;2.22;0.60;;;;;;;18.08;73.85;93626.53;5073959;28;20267;-81
2021/08/08 09:27:31;;;;;;;2.42;0.93;;;;;;;17.15;77.45;93622.06;5072997;28;20203;-79
2021/08/08 09:30:01;;;;;;;2.35;0.63;;;;;;;16.76;78.94;93628.09;5073667;28;20226;-78
2021/08/08 09:32:32;;;;;;;2.72;0.82;;;;;;;16.93;81.84;93627.31;5075580;28;20217;-77
2021/08/08 09:35:07;;;;;;;1.48;0.70;;;;;;;17.23;80.89;93626.91;5070642;28;20199;-82
2021/08/08 09:37:36;;;;;;;2.83;1.10;;;;;;;16.79;78.89;93630.25;5073116;28;20202;-81
2021/08/08 09:40:12;;;;;;;6.05;1.00;;;;;;;17.36;85.27;93629.19;5073197;28;20209;-78
2021/08/08 09:42:44;;;;;;;4.28;0.63;;;;;;;17.57;79.96;93629.44;5073510;28;20645;-78
2021/08/08 09:45:14;;;;;;;6.57;0.90;;;;;;;17.98;85.50;93635.16;5073375;28;20230;-78
2021/08/08 09:47:44;;;;;;;2.75;0.70;;;;;;;18.12;75.65;93638.19;5073616;28;20199;-81
2021/08/08 09:50:13;;;;;;;6.25;0.80;;;;;;;18.15;72.08;93637.66;5073314;28;20462;-79
2021/08/08 09:52:42;;;;;;;3.97;0.80;;;;;;;18.47;75.05;93632.41;5073001;28;20210;-80
2021/08/08 09:55:22;;;;;;;4.32;0.80;;;;;;;19.02;70.92;93633.06;5073094;28;20222;-79
2021/08/08 09:57:49;;;;;;;2.72;0.88;;;;;;;18.90;69.30;93639.59;5073364;28;20198;-82
2021/08/08 10:00:27;;;;;;;6.18;1.25;;;;;;;19.02;73.21;93634.91;5073365;28;20210;-81
2021/08/08 10:02:54;;;;;;;2.35;0.75;;;;;;;19.11;69.72;93643.94;5073300;28;20657;-81
2021/08/08 10:05:22;;;;;;;2.42;0.80;;;;;;;19.19;68.83;93646.13;5073181;28;20199;-81
2021/08/08 10:07:50;;;;;;;3.50;0.70;;;;;;;19.63;68.46;93633.59;5073286;28;20203;-80
2021/08/08 10:10:18;;;;;;;3.25;0.70;;;;;;;19.67;66.67;93646.06;5073159;28;20226;-80
2021/08/08 10:13:17;;;;;;;1.77;0.50;;;;;;;18.67;68.58;93652.13;5073078;28;20629;-79
2021/08/08 10:15:45;;;;;;;2.67;0.70;;;;;;;18.75;75.24;93638.44;5072905;28;20210;-78
2021/08/08 10:18:14;;;;;;;4.10;0.77;;;;;;;18.75;70.38;93643.72;5071903;28;20256;-81
2021/08/08 10:20:41;;;;;;;2.42;0.60;;;;;;;18.84;70.67;93642.22;5072830;28;20198;-79
2021/08/08 10:23:13;;;;;;;2.38;0.90;;;;;;;18.77;72.19;93646.91;5072681;28;20207;-79
2021/08/08 10:25:39;;;;;;;3.92;0.77;;;;;;;17.84;70.98;93649.78;5071830;28;20434;-80
2021/08/08 10:28:08;;;;;;;3.25;1.00;;;;;;;17.27;71.51;93646.50;5072623;28;20207;-82
2021/08/08 10:30:35;;;;;;;3.22;0.95;;;;;;;17.05;75.42;93648.31;5072765;28;20199;-80
2021/08/08 10:33:02;;;;;;;7.43;1.20;;;;;;;17.33;76.25;93648.13;5072809;28;20202;-81
2021/08/08 10:35:36;;;;;;;2.55;1.00;;;;;;;18.01;74.38;93653.16;5072142;28;20494;-82
2021/08/08 10:38:03;;;;;;;3.05;0.80;;;;;;;18.51;73.39;93650.41;5072569;28;20203;-81
2021/08/08 10:40:33;;;;;;;2.47;0.60;;;;;;;18.73;66.86;93648.44;5072617;28;20198;-81
2021/08/08 10:43:01;;;;;;;3.20;0.70;;;;;;;18.65;69.45;93651.56;5072464;28;20237;-81
2021/08/08 10:45:29;;;;;;;4.07;0.90;;;;;;;18.51;76.77;93653.06;5072077;28;20697;-80
2021/08/08 10:47:58;;;;;;;3.15;0.80;;;;;;;18.76;67.78;93653.22;5072223;28;20695;-79
2021/08/08 10:50:36;;;;;;;3.70;0.80;;;;;;;18.59;69.00;93639.38;5072324;28;20234;-81
2021/08/08 10:53:04;;;;;;;4.43;1.10;;;;;;;18.68;68.96;93648.41;5072523;28;20607;-81
2021/08/08 10:55:35;;;;;;;2.70;0.68;;;;;;;18.72;66.50;93649.50;5072374;28;20195;-79
2021/08/08 10:58:13;;;;;;;3.28;0.70;;;;;;;19.14;66.02;93645.31;5072630;28;20260;-81
2021/08/08 11:00:40;;;;;;;2.85;0.73;;;;;;;19.56;69.19;93647.84;5072588;28;20206;-80
2021/08/08 11:03:11;;;;;;;2.47;1.30;;;;;;;19.45;68.04;93648.91;5072627;28;20718;-79
2021/08/08 11:05:37;;;;;;;3.88;0.88;;;;;;;20.03;68.24;93645.38;5072085;28;20255;-81
2021/08/08 11:08:06;;;;;;;3.25;0.65;;;;;;;19.70;64.38;93653.47;5075784;28;20199;-80
2021/08/08 11:10:38;;;;;;;4.65;0.80;;;;;;;20.20;68.27;93645.94;5076013;28;20253;-79
2021/08/08 11:13:15;;;;;;;2.50;0.73;;;;;;;20.86;65.73;93637.19;5076470;28;20211;-80
2021/08/08 11:15:43;;;;;;;4.50;0.80;;;;;;;20.78;60.15;93647.56;5076174;28;20297;-82
2021/08/08 11:18:10;;;;;;;1.77;0.80;;;;;;;19.94;58.86;93651.19;5075803;28;20214;-82
2021/08/08 11:20:36;;;;;;;2.05;0.70;;;;;;;19.73;63.30;93658.28;5076185;28;20195;-81
2021/08/08 11:23:04;;;;;;;2.60;0.80;;;;;;;19.22;65.43;93653.53;5076122;28;20199;-80
2021/08/08 11:25:38;;;;;;;2.35;0.85;;;;;;;19.49;65.58;93643.88;5075808;28;20203;-80
2021/08/08 11:28:06;;;;;;;1.58;0.68;;;;;;;19.86;63.84;93641.09;5075994;28;20255;-80
2021/08/08 11:30:39;;;;;;;4.10;1.00;;;;;;;20.28;61.34;93637.47;5075635;28;20238;-81